Terminal Aerodrome Forecast
Issued by NWS North Platte, NE

Home | Current Version | Previous Version | Text Only | Print | Product List | Glossary On
Versions: 1 2 3 4 5 6 7 8 9 10 11 12 13 14
000
FTUS43 KLBF 031727
TAFLBF
TAF
KLBF 031727Z 0318/0418 14005KT P6SM SCT250
     FM032000 15010KT P6SM SCT100 BKN150
     FM032200 15009KT P6SM VCTS SCT090CB BKN120
     FM040200 12011KT P6SM SCT080 BKN120
      TEMPO 0402/0405 5SM -TSRA BKN080CB
     FM041100 VRB05KT P6SM SCT150=

USA.gov is the U.S. government's official web portal to all federal, state and local government web resources and services.